sensor_id;sensor_type;location;lat;lon;timestamp;P1;durP1;ratioP1;P2;durP2;ratioP2
781;SDS011;374;52.568;13.402;2024-01-15T00:01:16;39.67;;;20.27;;
781;SDS011;374;52.568;13.402;2024-01-15T00:03:41;33.33;;;19.40;;
781;SDS011;374;52.568;13.402;2024-01-15T00:06:07;34.33;;;19.90;;
781;SDS011;374;52.568;13.402;2024-01-15T00:08:32;32.33;;;19.10;;
781;SDS011;374;52.568;13.402;2024-01-15T00:10:58;38.90;;;20.50;;
781;SDS011;374;52.568;13.402;2024-01-15T00:13:23;37.77;;;20.30;;
781;SDS011;374;52.568;13.402;2024-01-15T00:15:49;40.97;;;21.00;;
781;SDS011;374;52.568;13.402;2024-01-15T00:18:14;34.53;;;19.53;;
781;SDS011;374;52.568;13.402;2024-01-15T00:20:40;34.97;;;19.23;;
781;SDS011;374;52.568;13.402;2024-01-15T00:23:05;39.50;;;20.07;;
781;SDS011;374;52.568;13.402;2024-01-15T00:25:30;35.87;;;18.17;;
781;SDS011;374;52.568;13.402;2024-01-15T00:27:56;30.23;;;19.03;;
781;SDS011;374;52.568;13.402;2024-01-15T00:30:21;36.97;;;19.57;;
781;SDS011;374;52.568;13.402;2024-01-15T00:32:47;33.93;;;18.23;;
781;SDS011;374;52.568;13.402;2024-01-15T00:35:12;41.77;;;18.40;;
781;SDS011;374;52.568;13.402;2024-01-15T00:37:38;30.93;;;19.60;;
781;SDS011;374;52.568;13.402;2024-01-15T00:40:04;29.77;;;18.10;;
781;SDS011;374;52.568;13.402;2024-01-15T00:42:30;31.27;;;18.90;;
781;SDS011;374;52.568;13.402;2024-01-15T00:44:56;30.70;;;18.03;;
781;SDS011;374;52.568;13.402;2024-01-15T00:47:21;35.73;;;19.43;;
781;SDS011;374;52.568;13.402;2024-01-15T00:49:47;29.73;;;18.70;;
781;SDS011;374;52.568;13.402;2024-01-15T00:52:12;32.67;;;18.17;;
781;SDS011;374;52.568;13.402;2024-01-15T00:54:38;34.43;;;18.87;;
781;SDS011;374;52.568;13.402;2024-01-15T00:57:05;42.13;;;20.23;;
781;SDS011;374;52.568;13.402;2024-01-15T00:59:30;38.00;;;18.97;;
781;SDS011;374;52.568;13.402;2024-01-15T01:01:56;38.67;;;19.77;;
781;SDS011;374;52.568;13.402;2024-01-15T01:04:21;30.33;;;18.57;;
781;SDS011;374;52.568;13.402;2024-01-15T01:06:47;36.47;;;18.57;;
781;SDS011;374;52.568;13.402;2024-01-15T01:09:12;33.50;;;17.97;;
781;SDS011;374;52.568;13.402;2024-01-15T01:11:38;36.70;;;18.53;;
781;SDS011;374;52.568;13.402;2024-01-15T01:14:03;34.77;;;18.00;;
781;SDS011;374;52.568;13.402;2024-01-15T01:16:29;32.90;;;16.50;;
781;SDS011;374;52.568;13.402;2024-01-15T01:18:55;32.77;;;16.77;;
781;SDS011;374;52.568;13.402;2024-01-15T01:21:21;34.43;;;17.83;;
781;SDS011;374;52.568;13.402;2024-01-15T01:23:46;30.10;;;17.00;;
781;SDS011;374;52.568;13.402;2024-01-15T01:26:15;31.80;;;18.10;;
781;SDS011;374;52.568;13.402;2024-01-15T01:28:41;34.47;;;17.40;;
781;SDS011;374;52.568;13.402;2024-01-15T01:31:06;31.20;;;15.90;;
781;SDS011;374;52.568;13.402;2024-01-15T01:33:33;34.60;;;17.23;;
781;SDS011;374;52.568;13.402;2024-01-15T01:35:58;31.83;;;16.63;;
781;SDS011;374;52.568;13.402;2024-01-15T01:38:24;33.70;;;17.17;;
781;SDS011;374;52.568;13.402;2024-01-15T01:40:49;34.17;;;16.60;;
781;SDS011;374;52.568;13.402;2024-01-15T01:43:15;26.83;;;16.17;;
781;SDS011;374;52.568;13.402;2024-01-15T01:45:40;32.27;;;17.20;;
781;SDS011;374;52.568;13.402;2024-01-15T01:48:06;32.23;;;16.57;;
781;SDS011;374;52.568;13.402;2024-01-15T01:50:32;29.33;;;15.30;;
781;SDS011;374;52.568;13.402;2024-01-15T01:52:58;28.17;;;15.93;;
781;SDS011;374;52.568;13.402;2024-01-15T01:55:26;26.20;;;15.00;;
781;SDS011;374;52.568;13.402;2024-01-15T01:57:54;24.53;;;14.70;;
781;SDS011;374;52.568;13.402;2024-01-15T02:00:20;27.53;;;15.03;;
781;SDS011;374;52.568;13.402;2024-01-15T02:02:45;31.30;;;14.50;;
781;SDS011;374;52.568;13.402;2024-01-15T02:05:11;27.93;;;14.60;;
781;SDS011;374;52.568;13.402;2024-01-15T02:07:39;30.80;;;15.23;;
781;SDS011;374;52.568;13.402;2024-01-15T02:10:06;27.13;;;15.10;;
781;SDS011;374;52.568;13.402;2024-01-15T02:12:32;24.43;;;15.40;;
781;SDS011;374;52.568;13.402;2024-01-15T02:14:57;27.47;;;15.03;;
781;SDS011;374;52.568;13.402;2024-01-15T02:17:23;30.00;;;15.17;;
781;SDS011;374;52.568;13.402;2024-01-15T02:19:49;26.77;;;15.77;;
781;SDS011;374;52.568;13.402;2024-01-15T02:22:14;33.43;;;15.20;;
781;SDS011;374;52.568;13.402;2024-01-15T02:24:40;30.10;;;15.13;;
781;SDS011;374;52.568;13.402;2024-01-15T02:27:05;28.00;;;15.80;;
781;SDS011;374;52.568;13.402;2024-01-15T02:29:31;26.03;;;15.50;;
781;SDS011;374;52.568;13.402;2024-01-15T02:31:57;26.77;;;14.43;;
781;SDS011;374;52.568;13.402;2024-01-15T02:34:22;25.57;;;13.47;;
781;SDS011;374;52.568;13.402;2024-01-15T02:36:48;27.80;;;12.93;;
781;SDS011;374;52.568;13.402;2024-01-15T02:39:13;34.87;;;13.20;;
781;SDS011;374;52.568;13.402;2024-01-15T02:41:41;28.03;;;12.20;;
781;SDS011;374;52.568;13.402;2024-01-15T02:44:07;20.17;;;12.03;;
781;SDS011;374;52.568;13.402;2024-01-15T02:46:32;23.77;;;12.40;;
781;SDS011;374;52.568;13.402;2024-01-15T02:48:58;20.40;;;12.30;;
781;SDS011;374;52.568;13.402;2024-01-15T02:51:23;20.53;;;11.47;;
781;SDS011;374;52.568;13.402;2024-01-15T02:53:49;19.47;;;10.13;;
781;SDS011;374;52.568;13.402;2024-01-15T02:56:15;26.60;;;11.93;;
781;SDS011;374;52.568;13.402;2024-01-15T02:58:40;21.87;;;11.80;;
781;SDS011;374;52.568;13.402;2024-01-15T03:01:06;27.00;;;11.40;;
781;SDS011;374;52.568;13.402;2024-01-15T03:03:31;21.23;;;11.43;;
781;SDS011;374;52.568;13.402;2024-01-15T03:05:58;17.77;;;10.13;;
781;SDS011;374;52.568;13.402;2024-01-15T03:08:23;29.00;;;14.13;;
781;SDS011;374;52.568;13.402;2024-01-15T03:10:49;27.63;;;12.83;;
781;SDS011;374;52.568;13.402;2024-01-15T03:13:14;22.90;;;12.67;;
781;SDS011;374;52.568;13.402;2024-01-15T03:15:40;20.67;;;12.40;;
781;SDS011;374;52.568;13.402;2024-01-15T03:18:05;21.80;;;10.60;;
781;SDS011;374;52.568;13.402;2024-01-15T03:20:31;24.80;;;11.80;;
781;SDS011;374;52.568;13.402;2024-01-15T03:22:56;18.23;;;9.93;;
781;SDS011;374;52.568;13.402;2024-01-15T03:25:22;17.73;;;11.03;;
781;SDS011;374;52.568;13.402;2024-01-15T03:27:47;19.77;;;10.87;;
781;SDS011;374;52.568;13.402;2024-01-15T03:30:13;23.00;;;12.07;;
781;SDS011;374;52.568;13.402;2024-01-15T03:32:38;21.50;;;11.63;;
781;SDS011;374;52.568;13.402;2024-01-15T03:35:04;24.13;;;10.67;;
781;SDS011;374;52.568;13.402;2024-01-15T03:37:29;19.43;;;10.93;;
781;SDS011;374;52.568;13.402;2024-01-15T03:39:55;17.97;;;11.03;;
781;SDS011;374;52.568;13.402;2024-01-15T03:42:21;20.87;;;11.70;;
781;SDS011;374;52.568;13.402;2024-01-15T03:44:46;20.00;;;11.70;;
781;SDS011;374;52.568;13.402;2024-01-15T03:47:12;23.00;;;11.87;;
781;SDS011;374;52.568;13.402;2024-01-15T03:49:37;22.00;;;11.30;;
781;SDS011;374;52.568;13.402;2024-01-15T03:52:03;20.40;;;12.10;;
781;SDS011;374;52.568;13.402;2024-01-15T03:54:29;17.47;;;10.50;;
781;SDS011;374;52.568;13.402;2024-01-15T03:56:54;23.13;;;11.43;;
781;SDS011;374;52.568;13.402;2024-01-15T03:59:20;19.30;;;12.37;;
781;SDS011;374;52.568;13.402;2024-01-15T04:01:49;18.50;;;10.83;;
781;SDS011;374;52.568;13.402;2024-01-15T04:04:15;22.30;;;11.43;;
781;SDS011;374;52.568;13.402;2024-01-15T04:06:42;24.03;;;10.20;;
781;SDS011;374;52.568;13.402;2024-01-15T04:09:08;21.60;;;10.60;;
781;SDS011;374;52.568;13.402;2024-01-15T04:11:33;26.07;;;11.40;;
781;SDS011;374;52.568;13.402;2024-01-15T04:13:58;19.57;;;11.10;;
781;SDS011;374;52.568;13.402;2024-01-15T04:16:24;15.37;;;11.80;;
781;SDS011;374;52.568;13.402;2024-01-15T04:18:49;23.20;;;10.77;;
781;SDS011;374;52.568;13.402;2024-01-15T04:21:16;16.57;;;9.93;;
781;SDS011;374;52.568;13.402;2024-01-15T04:23:43;20.73;;;9.80;;
781;SDS011;374;52.568;13.402;2024-01-15T04:26:09;19.63;;;10.60;;
781;SDS011;374;52.568;13.402;2024-01-15T04:28:34;19.50;;;9.93;;
781;SDS011;374;52.568;13.402;2024-01-15T04:31:00;22.53;;;11.27;;
781;SDS011;374;52.568;13.402;2024-01-15T04:33:25;23.93;;;10.20;;
781;SDS011;374;52.568;13.402;2024-01-15T04:35:50;16.90;;;9.83;;
781;SDS011;374;52.568;13.402;2024-01-15T04:38:16;19.40;;;10.50;;
781;SDS011;374;52.568;13.402;2024-01-15T04:40:41;18.57;;;9.03;;
781;SDS011;374;52.568;13.402;2024-01-15T04:43:07;22.27;;;9.20;;
781;SDS011;374;52.568;13.402;2024-01-15T04:45:32;21.80;;;8.70;;
781;SDS011;374;52.568;13.402;2024-01-15T04:47:58;27.40;;;9.43;;
781;SDS011;374;52.568;13.402;2024-01-15T04:50:23;16.60;;;7.77;;
781;SDS011;374;52.568;13.402;2024-01-15T04:52:49;19.40;;;9.03;;
781;SDS011;374;52.568;13.402;2024-01-15T04:55:15;27.03;;;9.50;;
781;SDS011;374;52.568;13.402;2024-01-15T04:57:41;18.03;;;8.87;;
781;SDS011;374;52.568;13.402;2024-01-15T05:00:06;14.63;;;7.47;;
781;SDS011;374;52.568;13.402;2024-01-15T05:02:32;16.10;;;8.40;;
781;SDS011;374;52.568;13.402;2024-01-15T05:04:57;15.30;;;6.90;;
781;SDS011;374;52.568;13.402;2024-01-15T05:07:23;17.70;;;8.30;;
781;SDS011;374;52.568;13.402;2024-01-15T05:09:48;10.03;;;6.97;;
781;SDS011;374;52.568;13.402;2024-01-15T05:12:14;14.00;;;7.40;;
781;SDS011;374;52.568;13.402;2024-01-15T05:14:39;19.77;;;7.60;;
781;SDS011;374;52.568;13.402;2024-01-15T05:17:05;12.40;;;6.90;;
781;SDS011;374;52.568;13.402;2024-01-15T05:19:30;8.93;;;5.90;;
781;SDS011;374;52.568;13.402;2024-01-15T05:21:55;11.07;;;5.83;;
781;SDS011;374;52.568;13.402;2024-01-15T05:24:21;16.17;;;7.17;;
781;SDS011;374;52.568;13.402;2024-01-15T05:26:46;17.63;;;7.00;;
781;SDS011;374;52.568;13.402;2024-01-15T05:29:12;10.30;;;6.20;;
781;SDS011;374;52.568;13.402;2024-01-15T05:31:37;15.47;;;5.70;;
781;SDS011;374;52.568;13.402;2024-01-15T05:34:03;7.87;;;5.27;;
781;SDS011;374;52.568;13.402;2024-01-15T05:36:28;9.77;;;5.37;;
781;SDS011;374;52.568;13.402;2024-01-15T05:38:54;17.20;;;5.70;;
781;SDS011;374;52.568;13.402;2024-01-15T05:41:19;15.27;;;5.53;;
781;SDS011;374;52.568;13.402;2024-01-15T05:43:45;8.00;;;5.00;;
781;SDS011;374;52.568;13.402;2024-01-15T05:46:10;19.50;;;5.40;;
781;SDS011;374;52.568;13.402;2024-01-15T05:48:35;9.47;;;5.70;;
781;SDS011;374;52.568;13.402;2024-01-15T05:51:01;10.60;;;5.43;;
781;SDS011;374;52.568;13.402;2024-01-15T05:53:27;15.10;;;5.90;;
781;SDS011;374;52.568;13.402;2024-01-15T05:55:52;18.13;;;5.33;;
781;SDS011;374;52.568;13.402;2024-01-15T05:58:19;9.03;;;4.80;;
781;SDS011;374;52.568;13.402;2024-01-15T06:00:44;9.80;;;4.30;;
781;SDS011;374;52.568;13.402;2024-01-15T06:03:11;17.03;;;5.37;;
781;SDS011;374;52.568;13.402;2024-01-15T06:05:36;11.80;;;4.63;;
781;SDS011;374;52.568;13.402;2024-01-15T06:08:02;7.17;;;3.90;;
781;SDS011;374;52.568;13.402;2024-01-15T06:10:27;10.23;;;3.70;;
781;SDS011;374;52.568;13.402;2024-01-15T06:12:53;12.60;;;4.10;;
781;SDS011;374;52.568;13.402;2024-01-15T06:15:18;13.10;;;3.67;;
781;SDS011;374;52.568;13.402;2024-01-15T06:17:44;12.70;;;4.23;;
781;SDS011;374;52.568;13.402;2024-01-15T06:20:09;6.47;;;3.60;;
781;SDS011;374;52.568;13.402;2024-01-15T06:22:35;12.40;;;4.50;;
781;SDS011;374;52.568;13.402;2024-01-15T06:25:02;5.80;;;3.63;;
781;SDS011;374;52.568;13.402;2024-01-15T06:27:28;17.20;;;5.07;;
781;SDS011;374;52.568;13.402;2024-01-15T06:29:53;9.13;;;3.60;;
781;SDS011;374;52.568;13.402;2024-01-15T06:32:20;11.47;;;3.33;;
781;SDS011;374;52.568;13.402;2024-01-15T06:34:46;9.27;;;3.70;;
781;SDS011;374;52.568;13.402;2024-01-15T06:37:11;10.60;;;4.53;;
781;SDS011;374;52.568;13.402;2024-01-15T06:39:37;11.83;;;3.83;;
781;SDS011;374;52.568;13.402;2024-01-15T06:42:02;7.53;;;3.73;;
781;SDS011;374;52.568;13.402;2024-01-15T06:44:28;7.80;;;3.83;;
781;SDS011;374;52.568;13.402;2024-01-15T06:46:53;7.20;;;4.33;;
781;SDS011;374;52.568;13.402;2024-01-15T06:49:22;7.40;;;3.97;;
781;SDS011;374;52.568;13.402;2024-01-15T06:51:48;13.40;;;4.20;;
781;SDS011;374;52.568;13.402;2024-01-15T06:54:13;12.47;;;5.37;;
781;SDS011;374;52.568;13.402;2024-01-15T06:56:42;12.23;;;4.17;;
781;SDS011;374;52.568;13.402;2024-01-15T06:59:07;9.77;;;3.27;;
781;SDS011;374;52.568;13.402;2024-01-15T07:01:33;7.57;;;4.07;;
781;SDS011;374;52.568;13.402;2024-01-15T07:03:58;9.97;;;3.53;;
781;SDS011;374;52.568;13.402;2024-01-15T07:06:24;4.40;;;2.93;;
781;SDS011;374;52.568;13.402;2024-01-15T07:08:49;7.80;;;3.80;;
781;SDS011;374;52.568;13.402;2024-01-15T07:11:15;11.93;;;4.07;;
781;SDS011;374;52.568;13.402;2024-01-15T07:13:40;15.37;;;4.37;;
781;SDS011;374;52.568;13.402;2024-01-15T07:16:06;10.80;;;3.83;;
781;SDS011;374;52.568;13.402;2024-01-15T07:18:32;12.33;;;3.90;;
781;SDS011;374;52.568;13.402;2024-01-15T07:20:57;10.60;;;3.13;;
781;SDS011;374;52.568;13.402;2024-01-15T07:23:24;15.33;;;3.47;;
781;SDS011;374;52.568;13.402;2024-01-15T07:25:49;10.20;;;3.83;;
781;SDS011;374;52.568;13.402;2024-01-15T07:28:15;5.63;;;3.37;;
781;SDS011;374;52.568;13.402;2024-01-15T07:30:40;9.23;;;3.20;;
781;SDS011;374;52.568;13.402;2024-01-15T07:33:06;5.27;;;3.00;;
781;SDS011;374;52.568;13.402;2024-01-15T07:35:31;15.20;;;3.73;;
781;SDS011;374;52.568;13.402;2024-01-15T07:37:57;10.90;;;2.90;;
781;SDS011;374;52.568;13.402;2024-01-15T07:40:23;8.63;;;3.77;;
781;SDS011;374;52.568;13.402;2024-01-15T07:42:49;9.67;;;4.03;;
781;SDS011;374;52.568;13.402;2024-01-15T07:45:15;20.87;;;4.17;;
781;SDS011;374;52.568;13.402;2024-01-15T07:47:41;20.93;;;7.27;;
781;SDS011;374;52.568;13.402;2024-01-15T07:50:06;16.80;;;4.10;;
781;SDS011;374;52.568;13.402;2024-01-15T07:52:32;10.73;;;3.73;;
781;SDS011;374;52.568;13.402;2024-01-15T07:54:57;9.40;;;3.50;;
781;SDS011;374;52.568;13.402;2024-01-15T07:57:26;10.40;;;3.80;;
781;SDS011;374;52.568;13.402;2024-01-15T07:59:51;8.70;;;3.67;;
781;SDS011;374;52.568;13.402;2024-01-15T08:02:17;12.40;;;3.33;;
781;SDS011;374;52.568;13.402;2024-01-15T08:04:42;12.10;;;3.50;;
781;SDS011;374;52.568;13.402;2024-01-15T08:07:08;7.97;;;3.10;;
781;SDS011;374;52.568;13.402;2024-01-15T08:09:33;8.33;;;3.70;;
781;SDS011;374;52.568;13.402;2024-01-15T08:11:59;13.03;;;3.87;;
781;SDS011;374;52.568;13.402;2024-01-15T08:14:25;11.83;;;3.87;;
781;SDS011;374;52.568;13.402;2024-01-15T08:16:50;6.47;;;3.20;;
781;SDS011;374;52.568;13.402;2024-01-15T08:19:16;11.43;;;3.30;;
781;SDS011;374;52.568;13.402;2024-01-15T08:21:41;8.73;;;4.43;;
781;SDS011;374;52.568;13.402;2024-01-15T08:24:07;6.43;;;3.47;;
781;SDS011;374;52.568;13.402;2024-01-15T08:26:33;5.50;;;3.20;;
781;SDS011;374;52.568;13.402;2024-01-15T08:28:58;5.20;;;3.13;;
781;SDS011;374;52.568;13.402;2024-01-15T08:31:24;6.60;;;3.57;;
781;SDS011;374;52.568;13.402;2024-01-15T08:33:50;4.80;;;2.50;;
781;SDS011;374;52.568;13.402;2024-01-15T08:36:15;7.77;;;2.93;;
781;SDS011;374;52.568;13.402;2024-01-15T08:38:41;7.90;;;5.07;;
781;SDS011;374;52.568;13.402;2024-01-15T08:41:07;12.80;;;5.13;;
781;SDS011;374;52.568;13.402;2024-01-15T08:43:33;6.47;;;3.10;;
781;SDS011;374;52.568;13.402;2024-01-15T08:45:59;25.93;;;15.80;;
781;SDS011;374;52.568;13.402;2024-01-15T08:48:25;14.70;;;5.77;;
781;SDS011;374;52.568;13.402;2024-01-15T08:50:52;8.70;;;4.23;;
781;SDS011;374;52.568;13.402;2024-01-15T08:53:18;10.90;;;3.60;;
781;SDS011;374;52.568;13.402;2024-01-15T08:55:44;11.27;;;3.80;;
781;SDS011;374;52.568;13.402;2024-01-15T08:58:09;8.30;;;3.13;;
781;SDS011;374;52.568;13.402;2024-01-15T09:00:35;8.53;;;3.30;;
781;SDS011;374;52.568;13.402;2024-01-15T09:03:00;38.73;;;23.47;;
781;SDS011;374;52.568;13.402;2024-01-15T09:05:27;4.23;;;3.10;;
781;SDS011;374;52.568;13.402;2024-01-15T09:07:52;12.33;;;4.50;;
781;SDS011;374;52.568;13.402;2024-01-15T09:10:18;15.13;;;4.20;;
781;SDS011;374;52.568;13.402;2024-01-15T09:12:44;10.27;;;5.00;;
781;SDS011;374;52.568;13.402;2024-01-15T09:15:09;8.87;;;3.77;;
781;SDS011;374;52.568;13.402;2024-01-15T09:17:35;11.73;;;3.60;;
781;SDS011;374;52.568;13.402;2024-01-15T09:20:00;9.53;;;4.67;;
781;SDS011;374;52.568;13.402;2024-01-15T09:22:26;13.33;;;4.60;;
781;SDS011;374;52.568;13.402;2024-01-15T09:24:52;6.43;;;3.43;;
781;SDS011;374;52.568;13.402;2024-01-15T09:27:17;11.40;;;4.20;;
781;SDS011;374;52.568;13.402;2024-01-15T09:29:43;10.50;;;3.97;;
781;SDS011;374;52.568;13.402;2024-01-15T09:32:10;22.47;;;4.90;;
781;SDS011;374;52.568;13.402;2024-01-15T09:34:37;17.67;;;4.63;;
781;SDS011;374;52.568;13.402;2024-01-15T09:37:02;32.17;;;23.23;;
781;SDS011;374;52.568;13.402;2024-01-15T09:39:29;22.97;;;7.87;;
781;SDS011;374;52.568;13.402;2024-01-15T09:41:55;5.83;;;4.47;;
781;SDS011;374;52.568;13.402;2024-01-15T09:44:21;10.17;;;4.27;;
781;SDS011;374;52.568;13.402;2024-01-15T09:46:47;5.90;;;3.60;;
781;SDS011;374;52.568;13.402;2024-01-15T09:49:15;11.27;;;4.10;;
781;SDS011;374;52.568;13.402;2024-01-15T09:51:41;9.93;;;4.20;;
781;SDS011;374;52.568;13.402;2024-01-15T09:54:07;11.50;;;3.90;;
781;SDS011;374;52.568;13.402;2024-01-15T09:56:34;9.10;;;3.57;;
781;SDS011;374;52.568;13.402;2024-01-15T09:59:00;5.20;;;3.00;;
781;SDS011;374;52.568;13.402;2024-01-15T10:01:26;8.67;;;3.00;;
781;SDS011;374;52.568;13.402;2024-01-15T10:03:54;6.87;;;3.30;;
781;SDS011;374;52.568;13.402;2024-01-15T10:06:19;10.83;;;2.97;;
781;SDS011;374;52.568;13.402;2024-01-15T10:08:47;6.27;;;2.80;;
781;SDS011;374;52.568;13.402;2024-01-15T10:11:13;11.53;;;3.17;;
781;SDS011;374;52.568;13.402;2024-01-15T10:13:39;6.43;;;2.83;;
781;SDS011;374;52.568;13.402;2024-01-15T10:16:05;5.43;;;3.00;;
781;SDS011;374;52.568;13.402;2024-01-15T10:18:31;7.23;;;2.60;;
781;SDS011;374;52.568;13.402;2024-01-15T10:20:57;6.90;;;3.00;;
781;SDS011;374;52.568;13.402;2024-01-15T10:23:23;9.27;;;2.77;;
781;SDS011;374;52.568;13.402;2024-01-15T10:25:49;8.87;;;2.43;;
781;SDS011;374;52.568;13.402;2024-01-15T10:28:16;6.33;;;3.10;;
781;SDS011;374;52.568;13.402;2024-01-15T10:30:51;5.77;;;2.80;;
781;SDS011;374;52.568;13.402;2024-01-15T10:33:26;8.90;;;3.30;;
781;SDS011;374;52.568;13.402;2024-01-15T10:35:59;10.13;;;3.37;;
781;SDS011;374;52.568;13.402;2024-01-15T10:41:28;7.00;;;3.00;;
781;SDS011;374;52.568;13.402;2024-01-15T10:43:54;9.50;;;2.87;;
781;SDS011;374;52.568;13.402;2024-01-15T10:46:19;5.97;;;3.23;;
781;SDS011;374;52.568;13.402;2024-01-15T10:48:45;5.90;;;3.10;;
781;SDS011;374;52.568;13.402;2024-01-15T10:51:13;12.93;;;4.00;;
781;SDS011;374;52.568;13.402;2024-01-15T10:53:41;3.43;;;2.90;;
781;SDS011;374;52.568;13.402;2024-01-15T10:56:09;6.67;;;2.63;;
781;SDS011;374;52.568;13.402;2024-01-15T11:04:59;7.60;;;3.27;;
781;SDS011;374;52.568;13.402;2024-01-15T11:08:00;5.63;;;2.87;;
781;SDS011;374;52.568;13.402;2024-01-15T11:10:43;8.40;;;3.40;;
781;SDS011;374;52.568;13.402;2024-01-15T11:15:59;6.57;;;3.00;;
781;SDS011;374;52.568;13.402;2024-01-15T11:18:32;5.50;;;2.20;;
781;SDS011;374;52.568;13.402;2024-01-15T11:23:46;4.27;;;2.03;;
781;SDS011;374;52.568;13.402;2024-01-15T11:34:20;3.50;;;2.20;;
781;SDS011;374;52.568;13.402;2024-01-15T11:42:02;2.27;;;2.07;;
781;SDS011;374;52.568;13.402;2024-01-15T11:44:31;3.00;;;2.10;;
781;SDS011;374;52.568;13.402;2024-01-15T11:46:57;5.27;;;2.10;;
781;SDS011;374;52.568;13.402;2024-01-15T11:52:31;9.57;;;2.90;;
781;SDS011;374;52.568;13.402;2024-01-15T11:55:11;9.63;;;3.07;;
781;SDS011;374;52.568;13.402;2024-01-15T11:57:51;6.03;;;2.60;;
781;SDS011;374;52.568;13.402;2024-01-15T12:00:19;7.47;;;3.30;;
781;SDS011;374;52.568;13.402;2024-01-15T12:02:46;3.27;;;2.43;;
781;SDS011;374;52.568;13.402;2024-01-15T12:05:13;4.07;;;2.40;;
781;SDS011;374;52.568;13.402;2024-01-15T12:07:50;7.40;;;2.70;;
781;SDS011;374;52.568;13.402;2024-01-15T12:10:18;4.83;;;2.73;;
781;SDS011;374;52.568;13.402;2024-01-15T12:12:53;5.77;;;2.40;;
781;SDS011;374;52.568;13.402;2024-01-15T12:15:29;5.00;;;2.53;;
781;SDS011;374;52.568;13.402;2024-01-15T12:17:55;5.23;;;2.97;;
781;SDS011;374;52.568;13.402;2024-01-15T12:20:25;2.97;;;2.53;;
781;SDS011;374;52.568;13.402;2024-01-15T12:22:51;2.93;;;2.30;;
781;SDS011;374;52.568;13.402;2024-01-15T12:25:23;2.67;;;2.20;;
781;SDS011;374;52.568;13.402;2024-01-15T12:27:50;4.17;;;2.63;;
781;SDS011;374;52.568;13.402;2024-01-15T12:30:16;2.70;;;2.40;;
781;SDS011;374;52.568;13.402;2024-01-15T12:32:43;6.40;;;4.40;;
781;SDS011;374;52.568;13.402;2024-01-15T12:35:12;3.73;;;2.37;;
781;SDS011;374;52.568;13.402;2024-01-15T12:37:42;3.03;;;2.50;;
781;SDS011;374;52.568;13.402;2024-01-15T12:40:08;3.60;;;2.20;;
781;SDS011;374;52.568;13.402;2024-01-15T12:42:41;6.10;;;2.23;;
781;SDS011;374;52.568;13.402;2024-01-15T12:45:06;4.17;;;2.73;;
781;SDS011;374;52.568;13.402;2024-01-15T12:47:33;2.83;;;2.63;;
781;SDS011;374;52.568;13.402;2024-01-15T12:49:59;4.00;;;2.00;;
781;SDS011;374;52.568;13.402;2024-01-15T12:52:27;4.30;;;2.53;;
781;SDS011;374;52.568;13.402;2024-01-15T12:55:00;4.07;;;2.30;;
781;SDS011;374;52.568;13.402;2024-01-15T12:57:25;2.03;;;1.83;;
781;SDS011;374;52.568;13.402;2024-01-15T12:59:51;2.20;;;2.00;;
781;SDS011;374;52.568;13.402;2024-01-15T13:02:19;3.73;;;1.93;;
781;SDS011;374;52.568;13.402;2024-01-15T13:04:47;2.33;;;2.13;;
781;SDS011;374;52.568;13.402;2024-01-15T13:07:20;2.60;;;2.33;;
781;SDS011;374;52.568;13.402;2024-01-15T13:09:48;2.70;;;1.90;;
781;SDS011;374;52.568;13.402;2024-01-15T13:12:18;1.97;;;1.80;;
781;SDS011;374;52.568;13.402;2024-01-15T13:14:45;2.30;;;2.07;;
781;SDS011;374;52.568;13.402;2024-01-15T13:17:10;3.03;;;2.07;;
781;SDS011;374;52.568;13.402;2024-01-15T13:19:36;3.93;;;2.00;;
781;SDS011;374;52.568;13.402;2024-01-15T13:22:01;1.90;;;1.80;;
781;SDS011;374;52.568;13.402;2024-01-15T13:24:31;2.67;;;1.80;;
781;SDS011;374;52.568;13.402;2024-01-15T13:27:03;2.10;;;1.93;;
781;SDS011;374;52.568;13.402;2024-01-15T13:29:32;2.70;;;2.50;;
781;SDS011;374;52.568;13.402;2024-01-15T13:31:58;2.40;;;2.10;;
781;SDS011;374;52.568;13.402;2024-01-15T13:34:24;4.90;;;2.30;;
781;SDS011;374;52.568;13.402;2024-01-15T13:36:58;2.70;;;2.13;;
781;SDS011;374;52.568;13.402;2024-01-15T13:39:23;4.47;;;2.23;;
781;SDS011;374;52.568;13.402;2024-01-15T13:41:49;4.83;;;2.70;;
781;SDS011;374;52.568;13.402;2024-01-15T13:44:20;5.10;;;2.57;;
781;SDS011;374;52.568;13.402;2024-01-15T13:46:57;4.30;;;2.90;;
781;SDS011;374;52.568;13.402;2024-01-15T13:49:23;3.93;;;2.90;;
781;SDS011;374;52.568;13.402;2024-01-15T13:51:49;6.80;;;3.53;;
781;SDS011;374;52.568;13.402;2024-01-15T13:54:15;2.63;;;2.23;;
781;SDS011;374;52.568;13.402;2024-01-15T13:56:58;6.40;;;2.37;;
781;SDS011;374;52.568;13.402;2024-01-15T13:59:24;3.13;;;2.17;;
781;SDS011;374;52.568;13.402;2024-01-15T14:01:50;10.70;;;2.67;;
781;SDS011;374;52.568;13.402;2024-01-15T14:04:23;9.20;;;2.83;;
781;SDS011;374;52.568;13.402;2024-01-15T14:06:48;2.80;;;2.03;;
781;SDS011;374;52.568;13.402;2024-01-15T14:09:16;2.53;;;2.30;;
781;SDS011;374;52.568;13.402;2024-01-15T14:11:50;7.10;;;2.30;;
781;SDS011;374;52.568;13.402;2024-01-15T14:14:16;6.70;;;2.43;;
781;SDS011;374;52.568;13.402;2024-01-15T14:16:44;3.97;;;2.20;;
781;SDS011;374;52.568;13.402;2024-01-15T14:19:10;2.53;;;2.33;;
781;SDS011;374;52.568;13.402;2024-01-15T14:21:35;4.47;;;2.07;;
781;SDS011;374;52.568;13.402;2024-01-15T14:24:04;4.67;;;2.37;;
781;SDS011;374;52.568;13.402;2024-01-15T14:26:29;10.57;;;2.97;;
781;SDS011;374;52.568;13.402;2024-01-15T14:29:01;4.37;;;2.40;;
781;SDS011;374;52.568;13.402;2024-01-15T14:31:26;5.43;;;2.53;;
781;SDS011;374;52.568;13.402;2024-01-15T14:33:53;2.50;;;2.20;;
781;SDS011;374;52.568;13.402;2024-01-15T14:36:20;3.70;;;2.17;;
781;SDS011;374;52.568;13.402;2024-01-15T14:38:48;8.83;;;2.47;;
781;SDS011;374;52.568;13.402;2024-01-15T14:41:14;4.17;;;2.43;;
781;SDS011;374;52.568;13.402;2024-01-15T14:43:41;8.30;;;2.80;;
781;SDS011;374;52.568;13.402;2024-01-15T14:46:07;3.77;;;2.00;;
781;SDS011;374;52.568;13.402;2024-01-15T14:48:35;4.70;;;2.13;;
781;SDS011;374;52.568;13.402;2024-01-15T14:51:01;4.63;;;3.77;;
781;SDS011;374;52.568;13.402;2024-01-15T14:53:28;2.10;;;2.00;;
781;SDS011;374;52.568;13.402;2024-01-15T14:55:53;6.17;;;3.20;;
781;SDS011;374;52.568;13.402;2024-01-15T14:58:19;9.10;;;4.30;;
781;SDS011;374;52.568;13.402;2024-01-15T15:00:45;6.87;;;4.03;;
781;SDS011;374;52.568;13.402;2024-01-15T15:03:11;9.57;;;5.57;;
781;SDS011;374;52.568;13.402;2024-01-15T15:05:38;13.40;;;7.57;;
781;SDS011;374;52.568;13.402;2024-01-15T15:08:04;11.90;;;7.17;;
781;SDS011;374;52.568;13.402;2024-01-15T15:10:33;11.70;;;6.00;;
781;SDS011;374;52.568;13.402;2024-01-15T15:13:04;7.93;;;4.90;;
781;SDS011;374;52.568;13.402;2024-01-15T15:15:32;8.63;;;4.50;;
781;SDS011;374;52.568;13.402;2024-01-15T15:17:58;10.77;;;4.07;;
781;SDS011;374;52.568;13.402;2024-01-15T15:20:23;7.03;;;4.07;;
781;SDS011;374;52.568;13.402;2024-01-15T15:22:49;5.67;;;3.33;;
781;SDS011;374;52.568;13.402;2024-01-15T15:25:14;3.10;;;2.80;;
781;SDS011;374;52.568;13.402;2024-01-15T15:27:42;7.37;;;4.00;;
781;SDS011;374;52.568;13.402;2024-01-15T15:30:08;4.37;;;2.67;;
781;SDS011;374;52.568;13.402;2024-01-15T15:32:34;3.57;;;2.93;;
781;SDS011;374;52.568;13.402;2024-01-15T15:34:59;8.33;;;4.27;;
781;SDS011;374;52.568;13.402;2024-01-15T15:37:28;3.77;;;3.13;;
781;SDS011;374;52.568;13.402;2024-01-15T15:39:55;3.00;;;2.40;;
781;SDS011;374;52.568;13.402;2024-01-15T15:42:24;5.47;;;3.17;;
781;SDS011;374;52.568;13.402;2024-01-15T15:44:49;6.70;;;3.57;;